createdAt,value
2022-07-31T00:00:15.796Z,101609.34
2022-07-31T00:02:42.884Z,101608.91
2022-07-31T00:05:10.336Z,101599.56
2022-07-31T00:07:37.592Z,101608.78
2022-07-31T00:10:05.873Z,101607.69
2022-07-31T00:12:34.802Z,101603.50
2022-07-31T00:15:08.157Z,101593.56
2022-07-31T00:17:35.094Z,101592.88
2022-07-31T00:20:02.312Z,101599.09
2022-07-31T00:22:30.154Z,101593.72
2022-07-31T00:24:57.273Z,101591.16
2022-07-31T00:27:24.639Z,101600.34
2022-07-31T00:29:51.897Z,101593.72
2022-07-31T00:32:18.922Z,101592.00
2022-07-31T00:34:45.905Z,101588.13
2022-07-31T00:37:12.807Z,101589.25
2022-07-31T00:39:39.848Z,101586.38
2022-07-31T00:42:19.578Z,101597.44
2022-07-31T00:44:48.510Z,101592.19
2022-07-31T00:47:16.233Z,101593.25
2022-07-31T00:49:43.690Z,101587.72
2022-07-31T00:52:12.315Z,101597.31
2022-07-31T00:54:40.052Z,101588.81
2022-07-31T00:57:07.361Z,101591.63
2022-07-31T00:59:34.568Z,101586.31
2022-07-31T01:02:01.670Z,101588.44
2022-07-31T01:04:28.658Z,101572.94
2022-07-31T01:06:59.413Z,101581.97
2022-07-31T01:09:27.138Z,101577.81
2022-07-31T01:12:10.389Z,101569.88
2022-07-31T01:14:46.700Z,101572.84
2022-07-31T01:17:14.372Z,101558.81
2022-07-31T01:19:45.441Z,101554.09
2022-07-31T01:23:05.439Z,101557.91
2022-07-31T01:25:47.580Z,101561.34
2022-07-31T01:28:38.342Z,101558.91
2022-07-31T01:31:26.833Z,101560.81
2022-07-31T01:34:05.895Z,101565.22
2022-07-31T01:36:37.416Z,101565.13
2022-07-31T01:39:05.154Z,101559.53
2022-07-31T01:41:52.390Z,101556.09
2022-07-31T01:44:20.349Z,101563.31
2022-07-31T01:46:48.734Z,101564.72
2022-07-31T01:49:19.077Z,101562.34
2022-07-31T01:51:48.675Z,101565.03
2022-07-31T01:54:19.010Z,101562.91
2022-07-31T01:56:48.960Z,101564.38
2022-07-31T01:59:20.299Z,101559.97
2022-07-31T02:01:51.508Z,101558.44
2022-07-31T02:04:20.782Z,101567.28
2022-07-31T02:06:50.089Z,101562.53
2022-07-31T02:09:20.160Z,101552.38
2022-07-31T02:11:53.735Z,101544.47
2022-07-31T02:14:23.004Z,101540.56
2022-07-31T02:16:51.269Z,101546.88
2022-07-31T02:19:19.516Z,101548.38
2022-07-31T02:21:46.566Z,101540.75
2022-07-31T02:24:13.892Z,101538.28
2022-07-31T02:26:41.220Z,101531.13
2022-07-31T02:29:19.656Z,101531.53
2022-07-31T02:32:01.859Z,101535.03
2022-07-31T02:34:37.680Z,101524.25
2022-07-31T02:37:06.180Z,101527.56
2022-07-31T02:39:35.278Z,101525.00
2022-07-31T02:42:03.310Z,101531.47
2022-07-31T02:44:34.815Z,101536.59
2022-07-31T02:47:05.515Z,101544.03
2022-07-31T02:49:35.633Z,101538.63
2022-07-31T02:52:06.039Z,101541.91
2022-07-31T02:54:39.453Z,101535.03
2022-07-31T02:57:07.168Z,101534.09
2022-07-31T02:59:40.628Z,101534.72
2022-07-31T03:02:07.866Z,101531.41
2022-07-31T03:04:35.812Z,101524.22
2022-07-31T03:07:03.926Z,101533.13
2022-07-31T03:09:31.014Z,101531.75
2022-07-31T03:12:04.091Z,101521.31
2022-07-31T03:14:34.404Z,101522.00
2022-07-31T03:17:03.140Z,101510.91
2022-07-31T03:19:30.889Z,101515.25
2022-07-31T03:21:59.340Z,101508.03
2022-07-31T03:24:27.000Z,101510.25
2022-07-31T03:26:54.020Z,101506.47
2022-07-31T03:29:41.615Z,101500.97
2022-07-31T03:32:10.222Z,101503.66
2022-07-31T03:34:37.261Z,101505.13
2022-07-31T03:37:04.240Z,101504.16
2022-07-31T03:39:31.391Z,101497.34
2022-07-31T03:41:59.466Z,101505.41
2022-07-31T03:44:28.959Z,101507.84
2022-07-31T03:46:55.964Z,101515.47
2022-07-31T03:49:24.156Z,101505.22
2022-07-31T03:51:51.131Z,101506.09
2022-07-31T03:54:18.124Z,101503.88
2022-07-31T03:56:49.510Z,101508.94
2022-07-31T03:59:18.376Z,101502.50
2022-07-31T04:01:56.773Z,101494.13
2022-07-31T04:04:25.641Z,101499.28
2022-07-31T04:06:52.964Z,101499.47
2022-07-31T04:09:22.980Z,101498.00
2022-07-31T04:11:49.935Z,101488.56
2022-07-31T04:14:17.095Z,101491.69
2022-07-31T04:16:44.014Z,101498.81
2022-07-31T04:19:10.981Z,101491.63
2022-07-31T04:21:38.016Z,101498.38
2022-07-31T04:24:05.590Z,101500.84
2022-07-31T04:26:32.669Z,101490.94
2022-07-31T04:29:00.070Z,101500.16
2022-07-31T04:31:27.013Z,101495.69
2022-07-31T04:33:56.718Z,101503.88
2022-07-31T04:36:30.663Z,101503.25
2022-07-31T04:38:59.698Z,101499.88
2022-07-31T04:41:26.802Z,101499.38
2022-07-31T04:43:53.864Z,101494.09
2022-07-31T04:46:21.265Z,101494.94
2022-07-31T04:48:49.235Z,101491.34
2022-07-31T04:51:21.189Z,101495.84
2022-07-31T04:53:52.582Z,101492.72
2022-07-31T04:56:42.210Z,101495.91
2022-07-31T04:59:15.429Z,101490.50
2022-07-31T05:01:44.079Z,101493.53
2022-07-31T05:04:11.726Z,101488.28
2022-07-31T05:06:42.808Z,101493.66
2022-07-31T05:09:19.130Z,101491.78
2022-07-31T05:11:48.302Z,101490.34
2022-07-31T05:14:21.588Z,101496.09
2022-07-31T05:16:49.446Z,101499.22
2022-07-31T05:19:16.903Z,101481.91
2022-07-31T05:21:47.107Z,101487.75
2022-07-31T05:24:33.079Z,101486.03
2022-07-31T05:27:03.032Z,101484.09
2022-07-31T05:29:31.278Z,101478.69
2022-07-31T05:32:00.474Z,101483.06
2022-07-31T05:34:29.969Z,101499.22
2022-07-31T05:37:01.261Z,101496.75
2022-07-31T05:39:29.426Z,101491.69
2022-07-31T05:41:56.595Z,101491.19
2022-07-31T05:44:24.590Z,101504.94
2022-07-31T05:49:18.761Z,101491.09
2022-07-31T05:51:46.898Z,101493.53
2022-07-31T05:54:14.368Z,101501.66
2022-07-31T05:56:41.388Z,101493.25
2022-07-31T05:59:09.743Z,101481.72
2022-07-31T06:01:37.590Z,101483.84
2022-07-31T06:04:04.690Z,101480.81
2022-07-31T06:06:31.645Z,101487.13
2022-07-31T06:09:04.119Z,101493.94
2022-07-31T06:11:33.007Z,101488.06
2022-07-31T06:13:59.931Z,101485.69
2022-07-31T06:16:26.876Z,101488.28
2022-07-31T06:18:54.073Z,101493.72
2022-07-31T06:23:46.853Z,101489.13
2022-07-31T06:26:13.815Z,101486.69
2022-07-31T06:28:48.802Z,101483.75
2022-07-31T06:31:21.209Z,101491.47
2022-07-31T06:33:49.710Z,101494.31
2022-07-31T06:36:17.955Z,101496.09
2022-07-31T06:38:46.072Z,101486.53
2022-07-31T06:41:36.034Z,101494.91
2022-07-31T06:44:03.547Z,101492.19
2022-07-31T06:46:30.462Z,101484.88
2022-07-31T06:48:57.618Z,101489.25
2022-07-31T06:51:32.292Z,101494.38
2022-07-31T06:54:04.833Z,101499.94
2022-07-31T06:56:32.795Z,101496.81
2022-07-31T06:59:00.809Z,101491.47
2022-07-31T07:01:28.553Z,101495.00
2022-07-31T07:03:55.896Z,101489.03
2022-07-31T07:06:23.415Z,101492.28
2022-07-31T07:08:51.335Z,101492.56
2022-07-31T07:11:19.259Z,101497.66
2022-07-31T07:13:47.057Z,101492.94
2022-07-31T07:16:15.509Z,101490.69
2022-07-31T07:18:45.733Z,101498.53
2022-07-31T07:21:12.735Z,101493.78
2022-07-31T07:23:39.919Z,101499.50
2022-07-31T07:26:07.029Z,101489.16
2022-07-31T07:28:36.227Z,101480.06
2022-07-31T07:31:04.686Z,101473.16
2022-07-31T07:33:40.903Z,101485.44
2022-07-31T07:36:23.271Z,101484.16
2022-07-31T07:38:55.613Z,101495.25
2022-07-31T07:41:25.043Z,101492.16
2022-07-31T07:43:53.189Z,101489.84
2022-07-31T07:46:22.929Z,101495.34
2022-07-31T07:48:51.129Z,101501.88
2022-07-31T07:51:19.637Z,101504.44
2022-07-31T07:53:47.224Z,101497.56
2022-07-31T07:56:14.608Z,101489.63
2022-07-31T07:58:41.631Z,101486.41
2022-07-31T08:01:09.194Z,101501.63
2022-07-31T08:03:48.886Z,101490.41
2022-07-31T08:06:21.036Z,101496.72
2022-07-31T08:08:48.115Z,101478.34
2022-07-31T08:11:17.331Z,101478.13
2022-07-31T08:13:50.968Z,101482.19
2022-07-31T08:16:20.497Z,101484.56
2022-07-31T08:18:55.447Z,101481.78
2022-07-31T08:21:22.416Z,101492.16
2022-07-31T08:23:49.803Z,101499.09
2022-07-31T08:26:18.675Z,101497.69
2022-07-31T08:28:50.721Z,101503.59
2022-07-31T08:31:21.231Z,101507.13
2022-07-31T08:33:49.266Z,101502.09
2022-07-31T08:36:16.394Z,101493.69
2022-07-31T08:38:43.488Z,101487.66
2022-07-31T08:41:14.673Z,101486.66
2022-07-31T08:44:01.801Z,101486.69
2022-07-31T08:46:29.423Z,101489.63
2022-07-31T08:48:57.513Z,101491.66
2022-07-31T08:51:25.246Z,101492.41
2022-07-31T08:53:53.333Z,101497.66
2022-07-31T08:56:21.070Z,101503.91
2022-07-31T08:58:48.162Z,101507.66
2022-07-31T09:01:15.617Z,101496.31
2022-07-31T09:03:42.840Z,101495.09
2022-07-31T09:06:09.883Z,101499.03
2022-07-31T09:08:37.752Z,101494.91
2022-07-31T09:11:14.320Z,101507.34
2022-07-31T09:14:01.960Z,101497.66
2022-07-31T09:16:31.348Z,101496.53
2022-07-31T09:19:52.454Z,101502.91
2022-07-31T09:21:52.634Z,101508.19
2022-07-31T09:24:30.590Z,101513.06
2022-07-31T09:27:08.680Z,101513.25
2022-07-31T09:29:45.021Z,101514.47
2022-07-31T09:32:18.783Z,101515.06
2022-07-31T09:34:47.935Z,101511.00
2022-07-31T09:37:21.260Z,101519.88
2022-07-31T09:39:54.400Z,101522.81
2022-07-31T09:42:38.425Z,101526.34
2022-07-31T09:45:23.992Z,101526.28
2022-07-31T09:48:12.761Z,101524.28
2022-07-31T09:51:04.754Z,101521.84
2022-07-31T09:53:45.646Z,101516.97
2022-07-31T09:56:14.740Z,101509.81
2022-07-31T09:58:42.643Z,101515.66
2022-07-31T10:01:12.762Z,101504.13
2022-07-31T10:03:41.173Z,101514.09
2022-07-31T10:06:16.645Z,101511.16
2022-07-31T10:08:46.304Z,101504.81
2022-07-31T10:11:22.501Z,101499.06
2022-07-31T10:13:54.501Z,101505.75
2022-07-31T10:16:25.656Z,101500.94
2022-07-31T10:19:00.120Z,101494.94
2022-07-31T10:21:36.093Z,101500.94
2022-07-31T10:24:05.668Z,101507.41
2022-07-31T10:26:57.710Z,101510.94
2022-07-31T10:29:20.381Z,101513.13
2022-07-31T10:31:47.871Z,101506.81
2022-07-31T10:34:17.145Z,101508.44
2022-07-31T10:36:47.197Z,101502.81
2022-07-31T10:39:51.051Z,101496.78
2022-07-31T10:42:54.801Z,101487.47
2022-07-31T10:45:23.100Z,101488.44
2022-07-31T10:48:03.127Z,101478.38
2022-07-31T10:50:32.688Z,101477.84
2022-07-31T10:53:15.525Z,101473.69
2022-07-31T10:55:43.637Z,101475.38
2022-07-31T10:58:19.838Z,101486.75
2022-07-31T11:00:46.832Z,101469.03
2022-07-31T11:03:21.885Z,101471.00
2022-07-31T11:06:01.143Z,101474.72
2022-07-31T11:08:41.400Z,101460.78
2022-07-31T11:11:09.172Z,101460.47
2022-07-31T11:13:56.778Z,101465.03
2022-07-31T11:16:24.021Z,101474.84
2022-07-31T11:19:02.807Z,101468.91
2022-07-31T11:21:41.828Z,101460.78
2022-07-31T11:24:20.608Z,101458.06
2022-07-31T11:26:50.987Z,101452.59
2022-07-31T11:30:01.157Z,101471.00
2022-07-31T11:32:25.220Z,101467.97
2022-07-31T11:34:55.927Z,101462.09
2022-07-31T11:37:34.265Z,101464.28
2022-07-31T11:40:14.669Z,101467.06
2022-07-31T11:43:04.603Z,101468.94
2022-07-31T11:45:47.257Z,101462.53
2022-07-31T11:48:17.793Z,101455.66
2022-07-31T11:50:48.614Z,101454.00
2022-07-31T11:53:16.836Z,101444.34
2022-07-31T11:55:59.309Z,101454.13
2022-07-31T11:58:28.522Z,101438.66
2022-07-31T12:01:05.323Z,101445.31
2022-07-31T12:03:38.935Z,101443.56
2022-07-31T12:06:08.622Z,101447.19
2022-07-31T12:08:37.547Z,101439.63
2022-07-31T12:11:08.096Z,101447.56
2022-07-31T12:13:35.689Z,101454.69
2022-07-31T12:16:11.258Z,101452.34
2022-07-31T12:18:50.347Z,101435.03
2022-07-31T12:21:18.901Z,101448.56
2022-07-31T12:23:51.456Z,101443.50
2022-07-31T12:26:30.301Z,101454.53
2022-07-31T12:29:11.378Z,101450.72
2022-07-31T12:31:50.795Z,101444.13
2022-07-31T12:34:42.978Z,101441.50
2022-07-31T12:37:15.292Z,101444.72
2022-07-31T12:39:59.371Z,101450.66
2022-07-31T12:42:41.314Z,101448.34
2022-07-31T12:45:20.137Z,101449.69
2022-07-31T12:47:51.559Z,101449.75
2022-07-31T12:50:23.649Z,101446.84
2022-07-31T12:52:51.385Z,101448.84
2022-07-31T12:55:19.533Z,101439.56
2022-07-31T12:57:51.094Z,101439.09
2022-07-31T13:00:23.089Z,101441.44
2022-07-31T13:02:52.064Z,101430.41
2022-07-31T13:05:19.833Z,101429.81
2022-07-31T13:07:47.113Z,101425.19
2022-07-31T13:10:19.012Z,101428.63
2022-07-31T13:12:50.504Z,101434.78
2022-07-31T13:15:20.071Z,101433.47
2022-07-31T13:17:50.600Z,101440.97
2022-07-31T13:20:18.862Z,101428.44
2022-07-31T13:22:45.788Z,101432.81
2022-07-31T13:25:12.860Z,101427.53
2022-07-31T13:27:41.407Z,101417.66
2022-07-31T13:30:09.997Z,101424.44
2022-07-31T13:32:37.017Z,101412.59
2022-07-31T13:35:23.981Z,101406.09
2022-07-31T13:37:53.809Z,101403.38
2022-07-31T13:40:40.861Z,101408.16
2022-07-31T13:43:07.939Z,101401.97
2022-07-31T13:45:34.929Z,101400.09
2022-07-31T13:48:04.473Z,101403.63
2022-07-31T13:50:37.364Z,101401.16
2022-07-31T13:53:04.816Z,101401.47
2022-07-31T13:55:32.097Z,101402.53
2022-07-31T13:57:59.348Z,101408.44
2022-07-31T14:00:29.255Z,101410.19
2022-07-31T14:02:57.229Z,101403.56
2022-07-31T14:05:26.631Z,101400.06
2022-07-31T14:07:55.784Z,101394.91
2022-07-31T14:10:23.729Z,101396.44
2022-07-31T14:12:52.588Z,101392.75
2022-07-31T14:15:19.675Z,101394.97
2022-07-31T14:17:46.631Z,101387.41
2022-07-31T14:20:13.930Z,101386.16
2022-07-31T14:22:42.293Z,101386.53
2022-07-31T14:25:12.716Z,101387.41
2022-07-31T14:27:39.945Z,101384.97
2022-07-31T14:30:09.155Z,101387.38
2022-07-31T14:32:36.448Z,101387.00
2022-07-31T14:35:08.019Z,101391.66
2022-07-31T14:37:36.546Z,101382.31
2022-07-31T14:40:06.938Z,101393.97
2022-07-31T14:42:34.400Z,101386.63
2022-07-31T14:45:05.598Z,101398.44
2022-07-31T14:47:33.707Z,101393.13
2022-07-31T14:50:08.996Z,101380.59
2022-07-31T14:52:37.921Z,101385.75
2022-07-31T14:55:05.812Z,101382.81
2022-07-31T14:57:32.792Z,101395.56
2022-07-31T14:59:59.822Z,101376.66
2022-07-31T15:02:27.190Z,101393.75
2022-07-31T15:06:38.656Z,101396.88
2022-07-31T15:07:49.626Z,101401.63
2022-07-31T15:10:16.701Z,101403.91
2022-07-31T15:12:43.862Z,101400.53
2022-07-31T15:15:11.258Z,101397.44
2022-07-31T15:17:38.174Z,101403.78
2022-07-31T15:20:06.228Z,101417.41
2022-07-31T15:22:33.389Z,101411.81
2022-07-31T15:25:00.351Z,101412.88
2022-07-31T15:27:27.430Z,101419.13
2022-07-31T15:30:00.519Z,101422.69
2022-07-31T15:32:36.355Z,101423.63
2022-07-31T15:35:06.144Z,101435.13
2022-07-31T15:37:38.625Z,101431.34
2022-07-31T15:40:08.941Z,101428.34
2022-07-31T15:42:40.580Z,101437.56
2022-07-31T15:45:19.112Z,101449.84
2022-07-31T15:47:47.783Z,101439.66
2022-07-31T15:50:18.849Z,101444.31
2022-07-31T15:52:45.869Z,101446.56
2022-07-31T15:55:12.978Z,101439.00
2022-07-31T15:57:40.186Z,101444.03
2022-07-31T16:00:10.939Z,101438.34
2022-07-31T16:02:38.176Z,101433.59
2022-07-31T16:05:12.054Z,101437.91
2022-07-31T16:08:31.807Z,101431.38
2022-07-31T16:10:36.081Z,101426.94
2022-07-31T16:13:03.287Z,101439.41
2022-07-31T16:15:30.407Z,101435.22
2022-07-31T16:17:57.569Z,101435.47
2022-07-31T16:20:26.276Z,101429.28
2022-07-31T16:23:01.549Z,101419.16
2022-07-31T16:25:34.733Z,101428.00
2022-07-31T16:28:03.898Z,101433.88
2022-07-31T16:30:31.850Z,101417.56
2022-07-31T16:32:58.922Z,101424.13
2022-07-31T16:35:29.017Z,101426.91
2022-07-31T16:37:56.264Z,101431.09
2022-07-31T16:40:29.873Z,101426.69
2022-07-31T16:43:01.707Z,101426.59
2022-07-31T16:45:30.051Z,101422.44
2022-07-31T16:47:57.633Z,101420.78
2022-07-31T16:50:24.898Z,101422.44
2022-07-31T16:52:54.833Z,101425.84
2022-07-31T16:55:51.602Z,101420.72
2022-07-31T16:58:11.861Z,101428.06
2022-07-31T17:00:39.878Z,101438.03
2022-07-31T17:03:59.565Z,101435.16
2022-07-31T17:05:54.220Z,101427.47
2022-07-31T17:08:24.713Z,101440.56
2022-07-31T17:10:54.688Z,101437.19
2022-07-31T17:13:22.842Z,101443.31
2022-07-31T17:15:49.867Z,101437.34
2022-07-31T17:18:16.841Z,101431.44
2022-07-31T17:20:47.029Z,101433.50
2022-07-31T17:23:14.330Z,101440.31
2022-07-31T17:25:42.827Z,101433.59
2022-07-31T17:28:15.087Z,101440.38
2022-07-31T17:30:45.178Z,101435.94
2022-07-31T17:33:12.725Z,101439.44
2022-07-31T17:35:40.071Z,101446.38
2022-07-31T17:38:07.367Z,101446.09
2022-07-31T17:40:43.437Z,101445.56
2022-07-31T17:43:16.649Z,101453.53
2022-07-31T17:46:05.889Z,101449.00
2022-07-31T17:48:36.346Z,101455.69
2022-07-31T17:51:03.454Z,101439.41
2022-07-31T17:53:54.786Z,101443.69
2022-07-31T17:56:17.735Z,101437.22
2022-07-31T17:58:45.009Z,101443.38
2022-07-31T18:01:12.026Z,101438.91
2022-07-31T18:03:38.975Z,101451.88
2022-07-31T18:06:05.951Z,101450.50
2022-07-31T18:08:33.078Z,101449.16
2022-07-31T18:11:05.360Z,101455.63
2022-07-31T18:13:47.749Z,101445.63
2022-07-31T18:16:17.726Z,101439.31
2022-07-31T18:18:46.034Z,101442.22
2022-07-31T18:21:14.237Z,101448.44
2022-07-31T18:23:43.673Z,101441.06
2022-07-31T18:26:15.164Z,101454.53
2022-07-31T18:28:42.236Z,101450.06
2022-07-31T18:31:31.982Z,101446.41
2022-07-31T18:33:56.283Z,101445.81
2022-07-31T18:36:23.475Z,101443.38
2022-07-31T18:38:52.146Z,101441.06
2022-07-31T18:41:20.805Z,101449.22
2022-07-31T18:43:48.121Z,101443.19
2022-07-31T18:46:17.860Z,101450.94
2022-07-31T18:48:44.827Z,101442.56
2022-07-31T18:51:11.818Z,101441.34
2022-07-31T18:53:38.843Z,101441.00
2022-07-31T18:56:05.858Z,101444.53
2022-07-31T18:58:32.787Z,101437.09
2022-07-31T19:00:59.873Z,101445.97
2022-07-31T19:03:27.135Z,101451.69
2022-07-31T19:05:54.588Z,101450.13
2022-07-31T19:08:21.755Z,101455.53
2022-07-31T19:10:52.000Z,101452.97
2022-07-31T19:13:20.379Z,101450.06
2022-07-31T19:15:49.088Z,101447.63
2022-07-31T19:18:17.358Z,101446.78
2022-07-31T19:20:58.892Z,101445.38
2022-07-31T19:23:38.051Z,101444.41
2022-07-31T19:26:05.748Z,101448.69
2022-07-31T19:28:33.400Z,101459.38
2022-07-31T19:31:00.599Z,101458.47
2022-07-31T19:33:27.907Z,101449.13
2022-07-31T19:36:00.919Z,101447.31
2022-07-31T19:38:33.086Z,101454.56
2022-07-31T19:41:00.678Z,101450.16
2022-07-31T19:43:28.983Z,101451.00
2022-07-31T19:46:09.598Z,101444.88
2022-07-31T19:48:41.677Z,101444.59
2022-07-31T19:51:10.615Z,101456.88
2022-07-31T19:53:37.887Z,101459.91
2022-07-31T19:56:06.180Z,101455.44
2022-07-31T19:58:35.417Z,101465.72
2022-07-31T20:01:06.256Z,101468.00
2022-07-31T20:03:33.952Z,101468.84
2022-07-31T20:06:02.725Z,101472.94
2022-07-31T20:08:32.990Z,101478.44
2022-07-31T20:11:05.392Z,101472.56
2022-07-31T20:13:34.154Z,101473.03
2022-07-31T20:16:01.676Z,101470.00
2022-07-31T20:18:29.558Z,101480.53
2022-07-31T20:21:00.834Z,101478.66
2022-07-31T20:23:28.197Z,101489.06
2022-07-31T20:25:55.346Z,101488.13
2022-07-31T20:28:22.712Z,101489.25
2022-07-31T20:30:50.059Z,101485.41
2022-07-31T20:33:17.211Z,101493.78
2022-07-31T20:35:47.863Z,101499.59
2022-07-31T20:38:26.139Z,101492.53
2022-07-31T20:40:55.897Z,101494.31
2022-07-31T20:43:25.708Z,101489.78
2022-07-31T20:45:57.292Z,101483.28
2022-07-31T20:48:31.169Z,101489.66
2022-07-31T20:51:00.215Z,101495.75
2022-07-31T20:53:27.800Z,101489.00
2022-07-31T20:55:54.858Z,101493.25
2022-07-31T20:58:23.995Z,101484.00
2022-07-31T21:00:52.897Z,101482.91
2022-07-31T21:03:20.337Z,101496.44
2022-07-31T21:05:48.079Z,101493.72
2022-07-31T21:08:16.162Z,101495.78
2022-07-31T21:10:43.520Z,101499.19
2022-07-31T21:13:10.696Z,101495.25
2022-07-31T21:15:44.115Z,101497.16
2022-07-31T21:18:21.609Z,101489.31
2022-07-31T21:20:53.471Z,101505.31
2022-07-31T21:23:22.695Z,101498.25
2022-07-31T21:25:52.585Z,101506.59
2022-07-31T21:28:21.273Z,101501.69
2022-07-31T21:30:48.743Z,101495.22
2022-07-31T21:33:16.315Z,101493.53
2022-07-31T21:35:43.953Z,101494.59
2022-07-31T21:38:12.230Z,101489.72
2022-07-31T21:40:40.295Z,101487.63
2022-07-31T21:43:08.677Z,101496.19
2022-07-31T21:45:47.767Z,101491.97
2022-07-31T21:48:25.189Z,101493.59
2022-07-31T21:50:53.577Z,101501.53
2022-07-31T21:53:20.739Z,101487.03
2022-07-31T21:55:47.773Z,101492.66
2022-07-31T21:58:16.342Z,101493.91
2022-07-31T22:00:44.807Z,101500.84
2022-07-31T22:03:12.015Z,101495.22
2022-07-31T22:05:57.891Z,101492.78
2022-07-31T22:08:24.885Z,101485.50
2022-07-31T22:10:52.803Z,101495.75
2022-07-31T22:13:20.659Z,101499.06
2022-07-31T22:15:59.187Z,101503.78
2022-07-31T22:18:32.714Z,101508.72
2022-07-31T22:21:02.786Z,101521.13
2022-07-31T22:23:29.862Z,101527.34
2022-07-31T22:25:57.387Z,101528.63
2022-07-31T22:28:26.835Z,101518.56
2022-07-31T22:30:55.235Z,101523.69
2022-07-31T22:33:22.844Z,101526.72
2022-07-31T22:35:59.738Z,101521.59
2022-07-31T22:38:29.876Z,101514.59
2022-07-31T22:41:01.282Z,101526.50
2022-07-31T22:44:10.483Z,101528.72
2022-07-31T22:46:16.385Z,101523.66
2022-07-31T22:48:45.816Z,101542.53
2022-07-31T22:51:14.839Z,101531.75
2022-07-31T22:53:43.868Z,101540.47
2022-07-31T22:56:11.218Z,101544.03
2022-07-31T22:58:38.345Z,101544.34
2022-07-31T23:01:05.321Z,101552.66
2022-07-31T23:03:32.244Z,101547.38
2022-07-31T23:06:02.760Z,101550.34
2022-07-31T23:08:52.003Z,101541.47
2022-07-31T23:11:21.896Z,101550.59
2022-07-31T23:13:48.791Z,101546.63
2022-07-31T23:16:15.714Z,101550.75
2022-07-31T23:18:42.806Z,101549.09
2022-07-31T23:21:10.913Z,101547.22
2022-07-31T23:23:38.227Z,101548.91
2022-07-31T23:26:05.267Z,101548.66
2022-07-31T23:28:33.794Z,101550.78
2022-07-31T23:31:00.731Z,101549.44
2022-07-31T23:33:27.655Z,101553.38
2022-07-31T23:35:54.825Z,101547.13
2022-07-31T23:38:21.950Z,101551.72
2022-07-31T23:40:48.912Z,101554.28
2022-07-31T23:43:20.912Z,101553.09
2022-07-31T23:45:48.066Z,101546.69
2022-07-31T23:48:15.992Z,101545.50
2022-07-31T23:50:44.266Z,101543.56
2022-07-31T23:53:14.534Z,101538.78
2022-07-31T23:55:42.698Z,101540.41
2022-07-31T23:58:11.192Z,101545.78
